KAFN/AFN METAR and TAF weather

Enter ICAO airport designator
Station Type Date Time Source
KAFN METAR 2020/07/11 01:34 UTC NOAA

KAFN 110134Z AUTO VRB06KT 10SM BKN012 BKN018 OVC023 23/21 A2994 RMK AO2 T02280206


Station Type Date Time Source
KAFN Decoded METAR 2020/07/11 01:34 UTC NOAA

JAFFREY MUNI-SILVER RANCH, NH, United States (KAFN) 42-48N 72-00W 313M
Jul 10, 2020 - 09:34 PM EDT / 2020.07.11 0134 UTC
Wind: Variable at 7 MPH (6 KT):0
Visibility: 10 mile(s):0
Sky conditions: overcast
Temperature: 73.0 F (22.8 C)
Dew Point: 69.1 F (20.6 C)
Relative Humidity: 87%
Pressure (altimeter): 29.94 in. Hg (1013 hPa)
ob: KAFN 110134Z AUTO VRB06KT 10SM BKN012 BKN018 OVC023 23/21 A2994 RMK AO2 T02280206
cycle: 1

Station Type Date Time Source
KAFN TAF UTC NOAA

Error!

Example: see airport list